Time;durP1;ratioP1;P1;durP2;ratioP2;P2;SDS_P1;SDS_P2;PMS_P1;PMS_P2;Temp;Humidity;BMP_temperature;BMP_pressure;BME280_temperature;BME280_humidity;BME280_pressure;Samples;Min_cycle;Max_cycle;Signal;HPM_P1;HPM_P2
2023/04/02 14:36:58;;;;;;;2.50;2.10;;;9.60;99.90;;;;;;5112690;27;20600;-87
2023/04/02 14:40:20;;;;;;;2.47;1.80;;;;;;;;;;5174738;27;20662;-89
2023/04/02 14:42:53;;;;;;;2.13;1.90;;;9.50;99.90;;;;;;5174238;27;20441;-87
2023/04/02 14:45:36;;;;;;;3.33;2.40;;;9.50;99.90;;;;;;5174064;27;20467;-88
2023/04/02 14:48:14;;;;;;;3.90;2.57;;;9.50;99.90;;;;;;5173029;27;20446;-88
2023/04/02 14:50:42;;;;;;;2.10;2.00;;;9.50;99.90;;;;;;5175056;27;20452;-85
2023/04/02 14:53:17;;;;;;;5.77;4.20;;;9.40;99.90;;;;;;5170809;27;20465;-86
2023/04/02 14:55:47;;;;;;;6.17;3.20;;;;;;;;;;5153904;27;20434;-87
2023/04/02 14:58:18;;;;;;;3.00;2.70;;;9.50;99.90;;;;;;5153022;27;20482;-89
2023/04/02 15:00:51;;;;;;;2.70;2.50;;;9.60;99.90;;;;;;5153266;27;20430;-87
2023/04/02 15:03:22;;;;;;;4.70;4.27;;;9.60;99.90;;;;;;5154043;27;20446;-85
2023/04/02 15:05:53;;;;;;;3.93;3.53;;;9.50;99.90;;;;;;5152641;27;20457;-88
2023/04/02 15:08:22;;;;;;;3.73;3.40;;;;;;;;;;5164596;27;20448;-87
2023/04/02 15:10:56;;;;;;;3.47;3.17;;;;;;;;;;5171246;27;20448;-86
2023/04/02 15:13:30;;;;;;;3.30;2.80;;;9.40;99.90;;;;;;5152338;27;20521;-84
2023/04/02 15:16:04;;;;;;;5.07;4.20;;;9.40;99.90;;;;;;5151963;27;20503;-87
2023/04/02 15:18:31;;;;;;;4.30;3.80;;;;;;;;;;5151929;27;20482;-85
2023/04/02 15:21:10;;;;;;;2.90;2.50;;;9.20;99.90;;;;;;5152389;27;20453;-86
2023/04/02 15:23:53;;;;;;;2.97;2.67;;;9.10;99.90;;;;;;5153012;27;20805;-85
2023/04/02 15:26:31;;;;;;;4.37;2.80;;;9.20;99.90;;;;;;5152363;27;20450;-90
2023/04/02 15:29:06;;;;;;;2.57;2.23;;;9.20;99.90;;;;;;5151937;27;20798;-87
2023/04/02 15:31:34;;;;;;;5.23;3.33;;;9.20;99.90;;;;;;5151940;27;20446;-84
2023/04/02 15:34:19;;;;;;;3.57;2.40;;;9.20;99.90;;;;;;5150986;27;20469;-85
2023/04/02 15:36:55;;;;;;;4.80;4.30;;;9.00;99.90;;;;;;5139281;27;20688;-83
2023/04/02 15:39:50;;;;;;;3.80;2.50;;;9.00;99.90;;;;;;5139945;27;20496;-88
2023/04/02 15:42:22;;;;;;;2.83;2.63;;;9.00;99.90;;;;;;5132293;27;20439;-83
2023/04/02 15:45:20;;;;;;;2.67;2.47;;;9.00;99.90;;;;;;5130339;27;20446;-84
2023/04/02 15:48:02;;;;;;;2.47;1.80;;;8.90;99.90;;;;;;5144254;27;20438;-82
2023/04/02 15:50:41;;;;;;;1.90;1.70;;;8.80;99.90;;;;;;5134923;27;20451;-87
2023/04/02 15:53:21;;;;;;;3.47;2.57;;;8.80;99.90;;;;;;5129283;27;20955;-83
2023/04/02 15:55:54;;;;;;;2.13;1.93;;;8.70;99.90;;;;;;5115902;28;20447;-83
2023/04/02 15:58:30;;;;;;;2.43;1.57;;;8.70;99.90;;;;;;5116567;28;20950;-87
2023/04/02 16:01:04;;;;;;;1.40;1.30;;;;;;;;;;5118183;28;20456;-86
2023/04/02 16:03:54;;;;;;;1.63;1.53;;;8.50;99.90;;;;;;5115406;28;20448;-85
2023/04/02 16:06:27;;;;;;;3.03;2.57;;;8.50;99.90;;;;;;5116669;28;20452;-87
2023/04/02 16:09:07;;;;;;;3.20;2.90;;;8.40;99.90;;;;;;5116596;28;20871;-86
2023/04/02 16:11:35;;;;;;;2.73;2.53;;;;;;;;;;5116708;28;20478;-83
2023/04/02 16:14:20;;;;;;;2.60;2.40;;;8.30;99.90;;;;;;5116474;28;20831;-85
2023/04/02 16:16:50;;;;;;;1.87;1.77;;;8.30;99.90;;;;;;5116482;28;20444;-84
2023/04/02 16:19:25;;;;;;;2.20;2.00;;;8.40;99.90;;;;;;5116693;27;20492;-82
2023/04/02 16:21:58;;;;;;;2.80;1.83;;;8.20;99.90;;;;;;5133755;27;20819;-83
2023/04/02 16:24:25;;;;;;;2.60;2.40;;;;;;;;;;5133335;27;20455;-84
2023/04/02 16:26:59;;;;;;;2.00;1.77;;;8.10;99.90;;;;;;5136424;27;20483;-83
2023/04/02 16:29:43;;;;;;;1.97;1.60;;;8.10;99.90;;;;;;5136507;27;20447;-82
2023/04/02 16:32:19;;;;;;;3.90;2.83;;;8.10;99.90;;;;;;5135392;27;20450;-85
2023/04/02 16:34:55;;;;;;;2.00;1.80;;;8.10;99.90;;;;;;5136211;27;20439;-88
2023/04/02 16:37:29;;;;;;;3.63;1.80;;;8.00;99.90;;;;;;5136648;27;20443;-84
2023/04/02 16:40:03;;;;;;;2.97;2.77;;;8.00;99.90;;;;;;5136093;27;20538;-81
2023/04/02 16:42:37;;;;;;;2.90;2.30;;;8.00;99.90;;;;;;5136592;27;20930;-84
2023/04/02 16:45:23;;;;;;;2.60;2.40;;;7.90;99.90;;;;;;5136287;27;20447;-83
2023/04/02 16:48:05;;;;;;;2.60;2.37;;;7.90;99.90;;;;;;5132463;27;20496;-82
2023/04/02 16:50:41;;;;;;;2.70;2.50;;;7.70;99.90;;;;;;5136424;27;20803;-85
2023/04/02 16:53:19;;;;;;;2.80;2.30;;;7.70;99.90;;;;;;5135301;27;20459;-86
2023/04/02 16:56:00;;;;;;;3.63;1.83;;;7.70;99.90;;;;;;5136140;27;20469;-84
2023/04/02 16:58:42;;;;;;;2.40;1.90;;;7.60;99.90;;;;;;5136137;27;20941;-84
2023/04/02 17:01:18;;;;;;;2.37;2.17;;;7.50;99.90;;;;;;5135466;27;20492;-88
2023/04/02 17:04:00;;;;;;;2.20;2.00;;;7.50;99.90;;;;;;5134609;27;20449;-84
2023/04/02 17:06:33;;;;;;;2.90;2.07;;;;;;;;;;5136170;27;20459;-87
2023/04/02 17:09:05;;;;;;;1.80;1.70;;;7.50;99.90;;;;;;5135873;27;20473;-90
2023/04/02 17:11:40;;;;;;;1.77;1.67;;;7.40;99.90;;;;;;5136119;27;20431;-87
2023/04/02 17:14:17;;;;;;;2.23;1.87;;;7.40;99.90;;;;;;5136017;27;20450;-85
2023/04/02 17:16:50;;;;;;;2.17;1.97;;;7.40;99.90;;;;;;5135916;27;20454;-87
2023/04/02 17:19:17;;;;;;;3.50;2.73;;;;;;;;;;5136165;27;20500;-85
2023/04/02 17:21:46;;;;;;;2.90;2.60;;;7.30;99.90;;;;;;5135758;27;20479;-84
2023/04/02 17:24:23;;;;;;;4.33;3.23;;;7.40;99.90;;;;;;5135517;27;20922;-88
2023/04/02 17:26:53;;;;;;;2.97;2.70;;;7.30;99.90;;;;;;5135668;27;20921;-85
2023/04/02 17:29:25;;;;;;;3.73;3.17;;;7.30;99.90;;;;;;5135408;27;20810;-86
2023/04/02 17:31:57;;;;;;;2.93;2.73;;;7.20;99.90;;;;;;5134890;27;20863;-85
2023/04/02 17:34:24;;;;;;;2.60;2.37;;;;;;;;;;5136254;27;20454;-85
2023/04/02 17:36:59;;;;;;;2.40;2.20;;;7.10;99.90;;;;;;5135986;27;20436;-86
2023/04/02 17:39:34;;;;;;;2.80;2.60;;;7.10;99.90;;;;;;5136045;27;20547;-85
2023/04/02 17:42:09;;;;;;;2.43;2.23;;;7.10;99.90;;;;;;5148340;27;20452;-87
2023/04/02 17:44:50;;;;;;;2.63;2.43;;;7.00;99.90;;;;;;5157691;27;20458;-85
2023/04/02 17:47:22;;;;;;;2.37;2.20;;;7.10;99.90;;;;;;5135652;27;20450;-88
2023/04/02 17:50:25;;;;;;;3.40;2.20;;;7.10;99.90;;;;;;5135505;27;20447;-85
2023/04/02 17:52:58;;;;;;;4.40;2.90;;;7.00;99.90;;;;;;5134801;27;20463;-85
2023/04/02 17:55:36;;;;;;;2.30;2.10;;;6.90;99.90;;;;;;5135590;27;20434;-87
2023/04/02 17:58:14;;;;;;;2.27;2.07;;;6.90;99.90;;;;;;5135564;27;20451;-84
2023/04/02 18:00:57;;;;;;;3.07;2.33;;;6.90;99.90;;;;;;5135482;27;20482;-83
2023/04/02 18:03:49;;;;;;;2.70;2.40;;;6.90;99.90;;;;;;5134240;27;20462;-86
2023/04/02 18:06:20;;;;;;;3.80;3.40;;;7.00;99.90;;;;;;5135494;27;20458;-87
2023/04/02 18:08:56;;;;;;;3.30;2.93;;;6.90;99.90;;;;;;5135022;27;20507;-87
2023/04/02 18:11:31;;;;;;;2.97;2.60;;;6.90;99.90;;;;;;5132675;27;20958;-86
2023/04/02 18:14:00;;;;;;;2.80;2.30;;;6.90;99.90;;;;;;5135400;27;20450;-87
2023/04/02 18:16:40;;;;;;;3.00;2.77;;;6.80;99.90;;;;;;5136261;27;20447;-85
2023/04/02 18:19:15;;;;;;;3.03;2.60;;;6.80;99.90;;;;;;5097679;27;20439;-88
2023/04/02 18:21:51;;;;;;;3.10;2.80;;;6.60;99.90;;;;;;5135292;27;20502;-88
2023/04/02 18:24:37;;;;;;;3.23;2.70;;;6.50;99.90;;;;;;5135111;27;20449;-84
2023/04/02 18:27:18;;;;;;;4.40;3.10;;;6.40;99.90;;;;;;5134926;27;20450;-87
2023/04/02 18:29:55;;;;;;;2.90;2.47;;;6.50;99.90;;;;;;5135024;27;20455;-86
2023/04/02 18:32:37;;;;;;;2.80;2.33;;;6.50;99.90;;;;;;5133751;27;20843;-84
2023/04/02 18:35:15;;;;;;;2.90;2.60;;;6.30;99.90;;;;;;5135283;27;20454;-83
2023/04/02 18:37:57;;;;;;;3.50;2.63;;;6.30;99.90;;;;;;5134763;27;21033;-83
2023/04/02 18:40:42;;;;;;;3.90;2.53;;;6.30;99.90;;;;;;5135730;27;20493;-80
2023/04/02 18:43:20;;;;;;;3.63;2.70;;;6.20;99.90;;;;;;5136081;28;20528;-80
2023/04/02 18:45:56;;;;;;;3.87;3.07;;;6.10;99.90;;;;;;5136726;27;20453;-86
2023/04/02 18:48:33;;;;;;;3.67;2.73;;;6.00;99.90;;;;;;5132946;27;20447;-86
2023/04/02 18:51:03;;;;;;;4.40;3.47;;;6.00;99.90;;;;;;5134802;27;20455;-82
2023/04/02 18:53:32;;;;;;;3.10;2.70;;;5.90;99.90;;;;;;5134646;27;20467;-83
2023/04/02 18:56:04;;;;;;;4.53;3.27;;;5.90;99.90;;;;;;5133979;27;20447;-87
2023/04/02 18:58:37;;;;;;;3.80;3.40;;;5.90;99.90;;;;;;5135111;28;20450;-82
2023/04/02 19:01:06;;;;;;;3.87;3.20;;;5.80;99.90;;;;;;5134053;27;20487;-84
2023/04/02 19:03:40;;;;;;;3.77;3.33;;;5.80;99.90;;;;;;5133585;27;20449;-86
2023/04/02 19:06:13;;;;;;;4.47;3.87;;;5.70;99.90;;;;;;5134154;27;20443;-82
2023/04/02 19:08:44;;;;;;;6.40;4.17;;;5.70;99.90;;;;;;5134914;27;20439;-83
2023/04/02 19:11:15;;;;;;;4.63;3.60;;;5.70;99.90;;;;;;5098714;28;20451;-85
2023/04/02 19:13:43;;;;;;;4.70;3.50;;;;;;;;;;5134701;28;20440;-88
2023/04/02 19:16:45;;;;;;;3.90;3.50;;;5.70;99.90;;;;;;5134390;27;20467;-88
2023/04/02 19:19:18;;;;;;;3.97;3.40;;;5.50;99.90;;;;;;5128291;27;20463;-86
2023/04/02 19:22:02;;;;;;;4.57;3.83;;;5.50;99.90;;;;;;5134069;27;20607;-88
2023/04/02 19:24:43;;;;;;;6.37;4.00;;;5.40;99.90;;;;;;5135218;27;20810;-86
2023/04/02 19:27:19;;;;;;;4.13;3.30;;;5.40;99.90;;;;;;5095462;28;20440;-86
2023/04/02 19:29:57;;;;;;;7.10;4.97;;;5.40;99.90;;;;;;5095755;28;20445;-86
2023/04/02 19:32:32;;;;;;;4.63;3.90;;;5.20;99.90;;;;;;5092726;28;20448;-87
2023/04/02 19:35:07;;;;;;;5.90;4.13;;;5.20;99.90;;;;;;5075244;28;20893;-87
2023/04/02 19:37:42;;;;;;;4.60;3.70;;;5.20;99.90;;;;;;5091754;28;20448;-81
2023/04/02 19:40:18;;;;;;;4.40;3.60;;;5.10;99.90;;;;;;5091782;28;20484;-84
2023/04/02 19:42:47;;;;;;;3.93;3.07;;;5.00;99.90;;;;;;5095056;28;20454;-87
2023/04/02 19:45:28;;;;;;;4.43;3.30;;;4.90;99.90;;;;;;5114796;27;20453;-83
2023/04/02 19:47:57;;;;;;;5.53;3.50;;;;;;;;;;5138447;27;20812;-84
2023/04/02 19:50:24;;;;;;;5.10;3.77;;;;;;;;;;5141182;27;20865;-87
2023/04/02 19:52:52;;;;;;;7.23;3.20;;;;;;;;;;5138526;27;20481;-86
2023/04/02 19:55:19;;;;;;;5.63;3.60;;;;;;;;;;5137401;27;20439;-82
2023/04/02 19:57:47;;;;;;;6.43;3.27;;;;;;;;;;5139339;27;20454;-86
2023/04/02 20:00:15;;;;;;;3.70;3.13;;;4.90;99.90;;;;;;5138591;27;20489;-87
2023/04/02 20:02:43;;;;;;;7.03;2.93;;;;;;;;;;5135319;27;20455;-83
2023/04/02 20:05:12;;;;;;;5.07;3.00;;;;;;;;;;5138920;27;20957;-83
2023/04/02 20:07:39;;;;;;;4.10;2.90;;;;;;;;;;5137602;27;20538;-82
2023/04/02 20:10:09;;;;;;;7.90;2.83;;;4.60;99.90;;;;;;5139051;27;20515;-82
2023/04/02 20:12:36;;;;;;;3.70;2.50;;;;;;;;;;5137331;27;20447;-80
2023/04/02 20:15:03;;;;;;;2.90;1.87;;;;;;;;;;5143843;27;20458;-82
2023/04/02 20:17:30;;;;;;;5.50;2.50;;;;;;;;;;5144806;27;20529;-81
2023/04/02 20:19:58;;;;;;;5.40;3.47;;;;;;;;;;5139279;27;20515;-84
2023/04/02 20:22:25;;;;;;;5.60;2.70;;;;;;;;;;5138198;27;20446;-83
2023/04/02 20:24:53;;;;;;;5.50;3.83;;;;;;;;;;5136687;27;20812;-85
2023/04/02 20:27:21;;;;;;;3.23;2.33;;;4.50;99.90;;;;;;5137870;27;20541;-84
2023/04/02 20:29:49;;;;;;;5.17;3.27;;;;;;;;;;5136171;27;20841;-87
2023/04/02 20:32:16;;;;;;;4.10;3.13;;;;;;;;;;5135309;27;20467;-86
2023/04/02 20:34:44;;;;;;;6.50;2.60;;;;;;;;;;5134159;27;20929;-86
2023/04/02 20:37:12;;;;;;;2.90;2.60;;;;;;;;;;5137166;27;20498;-85
2023/04/02 20:39:39;;;;;;;3.87;3.10;;;;;;;;;;5133120;27;20488;-84
2023/04/02 20:42:06;;;;;;;5.60;3.33;;;;;;;;;;5136055;27;20816;-84
2023/04/02 20:44:34;;;;;;;5.93;2.50;;;;;;;;;;5136376;27;20459;-85
2023/04/02 20:47:02;;;;;;;4.93;3.10;;;;;;;;;;5135054;27;20545;-83
2023/04/02 20:49:29;;;;;;;4.37;2.67;;;;;;;;;;5136245;27;20443;-84
2023/04/02 20:51:56;;;;;;;3.17;2.40;;;;;;;;;;5135746;27;20451;-85
2023/04/02 20:54:23;;;;;;;4.20;2.87;;;;;;;;;;5135530;27;20454;-84
2023/04/02 20:56:51;;;;;;;3.30;2.80;;;;;;;;;;5135784;27;20830;-83
2023/04/02 20:59:18;;;;;;;4.90;3.13;;;;;;;;;;5135923;27;20447;-84
2023/04/02 21:01:46;;;;;;;3.33;2.80;;;4.20;99.90;;;;;;5135235;27;20559;-84
2023/04/02 21:04:14;;;;;;;4.43;2.87;;;;;;;;;;5131939;27;20451;-84
2023/04/02 21:06:41;;;;;;;2.90;2.40;;;;;;;;;;5135435;27;20500;-86
2023/04/02 21:09:15;;;;;;;2.60;2.30;;;4.20;99.90;;;;;;5135703;27;20447;-84
2023/04/02 21:11:42;;;;;;;3.73;2.83;;;;;;;;;;5134138;27;20973;-82
2023/04/02 21:14:10;;;;;;;4.97;3.03;;;;;;;;;;5131073;27;20450;-84
2023/04/02 21:16:37;;;;;;;3.47;2.80;;;4.10;99.90;;;;;;5136669;27;20451;-84
2023/04/02 21:19:08;;;;;;;3.07;2.77;;;4.10;99.90;;;;;;5131873;27;20541;-84
2023/04/02 21:21:37;;;;;;;4.80;3.03;;;4.10;99.90;;;;;;5132439;27;21011;-84
2023/04/02 21:24:06;;;;;;;2.50;2.30;;;4.00;99.90;;;;;;5135303;27;20447;-83
2023/04/02 21:26:36;;;;;;;4.53;3.43;;;4.10;99.90;;;;;;5135216;27;20443;-83
2023/04/02 21:29:03;;;;;;;2.93;2.40;;;4.10;99.90;;;;;;5071594;28;20958;-83
2023/04/02 21:31:35;;;;;;;7.13;3.30;;;4.10;99.90;;;;;;5068837;28;20474;-84
2023/04/02 21:34:02;;;;;;;3.17;2.37;;;;;;;;;;5070378;28;20446;-84
2023/04/02 21:36:32;;;;;;;2.77;2.47;;;4.10;99.90;;;;;;5071657;28;20835;-84
2023/04/02 21:39:01;;;;;;;4.43;2.67;;;4.10;99.90;;;;;;5071409;28;20473;-85
2023/04/02 21:41:29;;;;;;;6.80;2.87;;;4.10;99.90;;;;;;5071391;28;20500;-84
2023/04/02 21:43:58;;;;;;;3.23;2.67;;;4.20;99.90;;;;;;5071507;28;20458;-84
2023/04/02 21:46:27;;;;;;;3.20;2.70;;;4.20;99.90;;;;;;5079617;27;20447;-84
2023/04/02 21:48:55;;;;;;;2.20;2.00;;;4.20;99.90;;;;;;5131631;27;20937;-84
2023/04/02 21:51:24;;;;;;;2.13;1.93;;;4.20;99.90;;;;;;5134886;27;20439;-84
2023/04/02 21:53:53;;;;;;;4.13;3.00;;;;;;;;;;5134530;27;20454;-83
2023/04/02 21:56:22;;;;;;;2.87;2.57;;;4.20;99.90;;;;;;5132051;27;20512;-84
2023/04/02 21:58:50;;;;;;;3.10;1.87;;;4.20;99.90;;;;;;5098806;27;20490;-84
2023/04/02 22:01:18;;;;;;;2.50;2.20;;;4.10;99.90;;;;;;5133910;27;20478;-84
2023/04/02 22:03:45;;;;;;;3.73;2.53;;;;;;;;;;5133524;27;20443;-85
2023/04/02 22:06:14;;;;;;;3.13;2.23;;;4.10;99.90;;;;;;5134497;27;20785;-85
2023/04/02 22:08:42;;;;;;;4.27;2.07;;;4.10;99.90;;;;;;5134540;27;20508;-84
2023/04/02 22:11:13;;;;;;;2.80;2.33;;;4.00;99.90;;;;;;5130764;27;20438;-84
2023/04/02 22:13:41;;;;;;;2.90;2.60;;;4.10;99.90;;;;;;5134245;27;20445;-84
2023/04/02 22:16:12;;;;;;;4.97;3.27;;;4.00;99.90;;;;;;5134023;27;20435;-85
2023/04/02 22:18:40;;;;;;;3.10;2.10;;;;;;;;;;5133157;27;20443;-83
2023/04/02 22:21:07;;;;;;;2.50;2.30;;;;;;;;;;5133936;27;20536;-85
2023/04/02 22:23:35;;;;;;;4.10;2.77;;;4.00;99.90;;;;;;5134043;27;20583;-85
2023/04/02 22:26:02;;;;;;;3.77;2.50;;;;;;;;;;5134065;27;20490;-82
2023/04/02 22:28:30;;;;;;;2.63;2.13;;;3.90;99.90;;;;;;5134251;27;20451;-83
2023/04/02 22:31:04;;;;;;;3.10;2.70;;;3.90;99.90;;;;;;5133808;27;20454;-83
2023/04/02 22:33:32;;;;;;;7.30;2.80;;;;;;;;;;5132924;27;20450;-84
2023/04/02 22:35:59;;;;;;;6.37;2.70;;;;;;;;;;5134242;27;20512;-85
2023/04/02 22:38:26;;;;;;;4.37;3.00;;;;;;;;;;5134031;28;20482;-84
2023/04/02 22:40:53;;;;;;;2.97;2.50;;;;;;;;;;5134307;28;20564;-84
2023/04/02 22:43:20;;;;;;;3.87;2.30;;;;;;;;;;5134206;28;20450;-84
2023/04/02 22:45:49;;;;;;;5.50;2.77;;;;;;;;;;5134848;28;20443;-83
2023/04/02 22:48:16;;;;;;;2.67;2.30;;;;;;;;;;5136554;28;20457;-80
2023/04/02 22:50:49;;;;;;;2.63;2.20;;;3.70;99.90;;;;;;5147513;28;20808;-83
2023/04/02 22:53:16;;;;;;;3.37;2.37;;;;;;;;;;5140663;28;20933;-84
2023/04/02 22:55:43;;;;;;;2.90;2.30;;;;;;;;;;5128747;28;20450;-85
2023/04/02 22:58:10;;;;;;;5.33;2.33;;;;;;;;;;5133544;28;20435;-84
2023/04/02 23:00:38;;;;;;;4.00;2.30;;;3.80;99.90;;;;;;5134550;27;20474;-84
2023/04/02 23:03:06;;;;;;;2.17;1.97;;;;;;;;;;5137152;27;21009;-85
2023/04/02 23:05:33;;;;;;;4.70;2.77;;;;;;;;;;5137585;27;20454;-84
2023/04/02 23:08:00;;;;;;;2.83;2.53;;;;;;;;;;5137516;27;20447;-85
2023/04/02 23:10:27;;;;;;;2.67;2.10;;;;;;;;;;5138005;27;20458;-85
2023/04/02 23:12:55;;;;;;;2.63;2.40;;;;;;;;;;5137780;27;20443;-84
2023/04/02 23:15:22;;;;;;;3.33;2.20;;;;;;;;;;5137231;27;20446;-84
2023/04/02 23:17:49;;;;;;;3.07;2.20;;;;;;;;;;5136344;27;20450;-85
2023/04/02 23:20:18;;;;;;;2.90;2.50;;;;;;;;;;5128039;27;20509;-84
2023/04/02 23:22:45;;;;;;;3.70;2.70;;;;;;;;;;5137656;27;20493;-84
2023/04/02 23:25:12;;;;;;;3.10;2.70;;;;;;;;;;5137389;27;20452;-86
2023/04/02 23:27:39;;;;;;;4.43;2.30;;;;;;;;;;5137174;27;20472;-84
2023/04/02 23:30:07;;;;;;;5.53;2.60;;;;;;;;;;5137137;27;20469;-87
2023/04/02 23:32:34;;;;;;;5.93;2.47;;;;;;;;;;5135694;27;20447;-86
2023/04/02 23:35:02;;;;;;;2.77;2.33;;;;;;;;;;5137188;27;20455;-84
2023/04/02 23:37:30;;;;;;;5.40;3.37;;;;;;;;;;5137085;27;20447;-85
2023/04/02 23:39:57;;;;;;;4.13;2.70;;;;;;;;;;5137138;27;20825;-85
2023/04/02 23:42:25;;;;;;;3.23;2.40;;;;;;;;;;5136873;27;20824;-86
2023/04/02 23:44:52;;;;;;;2.53;2.33;;;;;;;;;;5136979;27;20799;-87
2023/04/02 23:47:19;;;;;;;6.00;3.20;;;;;;;;;;5135639;27;20881;-85
2023/04/02 23:49:46;;;;;;;4.83;2.97;;;;;;;;;;5136955;27;20438;-86
2023/04/02 23:52:14;;;;;;;4.67;2.77;;;;;;;;;;5134881;27;20495;-85
2023/04/02 23:54:42;;;;;;;3.20;2.60;;;;;;;;;;5136936;27;20446;-83
2023/04/02 23:57:10;;;;;;;2.50;2.10;;;;;;;;;;5135603;27;20447;-84
2023/04/02 23:59:37;;;;;;;3.10;2.80;;;;;;;;;;5136975;27;20454;-85
